sensor_id;sensor_type;location;lat;lon;timestamp;P1;durP1;ratioP1;P2;durP2;ratioP2
6023;SDS011;3040;42.654;23.296;2023-05-07T00:00:21;12.47;;;11.27;;
6023;SDS011;3040;42.654;23.296;2023-05-07T00:02:48;10.90;;;10.00;;
6023;SDS011;3040;42.654;23.296;2023-05-07T00:05:16;11.73;;;10.60;;
6023;SDS011;3040;42.654;23.296;2023-05-07T00:07:43;11.27;;;10.20;;
6023;SDS011;3040;42.654;23.296;2023-05-07T00:10:10;10.23;;;9.40;;
6023;SDS011;3040;42.654;23.296;2023-05-07T00:12:38;10.33;;;9.53;;
6023;SDS011;3040;42.654;23.296;2023-05-07T00:15:06;27.87;;;21.90;;
6023;SDS011;3040;42.654;23.296;2023-05-07T00:17:34;8.93;;;8.30;;
6023;SDS011;3040;42.654;23.296;2023-05-07T00:20:01;10.43;;;9.23;;
6023;SDS011;3040;42.654;23.296;2023-05-07T00:22:28;10.17;;;9.50;;
6023;SDS011;3040;42.654;23.296;2023-05-07T00:24:55;11.47;;;10.37;;
6023;SDS011;3040;42.654;23.296;2023-05-07T00:27:22;11.07;;;9.80;;
6023;SDS011;3040;42.654;23.296;2023-05-07T00:29:50;10.60;;;9.60;;
6023;SDS011;3040;42.654;23.296;2023-05-07T00:32:17;11.13;;;10.13;;
6023;SDS011;3040;42.654;23.296;2023-05-07T00:34:44;8.67;;;8.07;;
6023;SDS011;3040;42.654;23.296;2023-05-07T00:37:10;9.13;;;8.27;;
6023;SDS011;3040;42.654;23.296;2023-05-07T00:39:37;9.53;;;8.93;;
6023;SDS011;3040;42.654;23.296;2023-05-07T00:42:04;10.60;;;9.73;;
6023;SDS011;3040;42.654;23.296;2023-05-07T00:44:31;9.57;;;8.80;;
6023;SDS011;3040;42.654;23.296;2023-05-07T00:46:59;9.03;;;8.17;;
6023;SDS011;3040;42.654;23.296;2023-05-07T00:49:32;9.57;;;8.83;;
6023;SDS011;3040;42.654;23.296;2023-05-07T00:52:05;7.87;;;7.07;;
6023;SDS011;3040;42.654;23.296;2023-05-07T00:54:32;10.03;;;8.20;;
6023;SDS011;3040;42.654;23.296;2023-05-07T00:57:01;8.97;;;8.23;;
6023;SDS011;3040;42.654;23.296;2023-05-07T00:59:29;7.57;;;7.20;;
6023;SDS011;3040;42.654;23.296;2023-05-07T01:01:56;6.53;;;6.10;;
6023;SDS011;3040;42.654;23.296;2023-05-07T01:04:25;6.80;;;6.40;;
6023;SDS011;3040;42.654;23.296;2023-05-07T01:06:53;6.73;;;6.13;;
6023;SDS011;3040;42.654;23.296;2023-05-07T01:09:22;6.97;;;6.43;;
6023;SDS011;3040;42.654;23.296;2023-05-07T01:11:50;6.03;;;5.73;;
6023;SDS011;3040;42.654;23.296;2023-05-07T01:14:18;7.10;;;6.63;;
6023;SDS011;3040;42.654;23.296;2023-05-07T01:16:45;7.70;;;7.13;;
6023;SDS011;3040;42.654;23.296;2023-05-07T01:19:13;7.67;;;7.17;;
6023;SDS011;3040;42.654;23.296;2023-05-07T01:21:44;6.80;;;6.23;;
6023;SDS011;3040;42.654;23.296;2023-05-07T01:24:15;6.47;;;5.90;;
6023;SDS011;3040;42.654;23.296;2023-05-07T01:26:42;5.90;;;5.60;;
6023;SDS011;3040;42.654;23.296;2023-05-07T01:29:09;6.70;;;5.87;;
6023;SDS011;3040;42.654;23.296;2023-05-07T01:31:36;7.70;;;6.83;;
6023;SDS011;3040;42.654;23.296;2023-05-07T01:34:05;7.20;;;6.53;;
6023;SDS011;3040;42.654;23.296;2023-05-07T01:36:34;7.13;;;6.73;;
6023;SDS011;3040;42.654;23.296;2023-05-07T01:39:05;7.97;;;7.47;;
6023;SDS011;3040;42.654;23.296;2023-05-07T01:41:34;7.87;;;7.37;;
6023;SDS011;3040;42.654;23.296;2023-05-07T01:44:01;10.23;;;9.00;;
6023;SDS011;3040;42.654;23.296;2023-05-07T01:46:29;7.70;;;7.13;;
6023;SDS011;3040;42.654;23.296;2023-05-07T01:48:59;9.13;;;7.23;;
6023;SDS011;3040;42.654;23.296;2023-05-07T01:51:25;8.00;;;7.37;;
6023;SDS011;3040;42.654;23.296;2023-05-07T01:53:52;8.37;;;7.83;;
6023;SDS011;3040;42.654;23.296;2023-05-07T01:56:20;9.87;;;8.70;;
6023;SDS011;3040;42.654;23.296;2023-05-07T01:58:48;8.03;;;7.30;;
6023;SDS011;3040;42.654;23.296;2023-05-07T02:01:16;18.43;;;11.47;;
6023;SDS011;3040;42.654;23.296;2023-05-07T02:03:43;9.63;;;8.83;;
6023;SDS011;3040;42.654;23.296;2023-05-07T02:06:10;8.13;;;7.73;;
6023;SDS011;3040;42.654;23.296;2023-05-07T02:08:36;11.17;;;10.27;;
6023;SDS011;3040;42.654;23.296;2023-05-07T02:11:03;8.50;;;7.77;;
6023;SDS011;3040;42.654;23.296;2023-05-07T02:13:31;9.23;;;8.53;;
6023;SDS011;3040;42.654;23.296;2023-05-07T02:16:00;9.17;;;8.30;;
6023;SDS011;3040;42.654;23.296;2023-05-07T02:18:27;7.67;;;7.27;;
6023;SDS011;3040;42.654;23.296;2023-05-07T02:20:54;9.60;;;8.67;;
6023;SDS011;3040;42.654;23.296;2023-05-07T02:23:21;8.03;;;7.43;;
6023;SDS011;3040;42.654;23.296;2023-05-07T02:25:47;8.70;;;8.00;;
6023;SDS011;3040;42.654;23.296;2023-05-07T02:28:14;8.30;;;7.57;;
6023;SDS011;3040;42.654;23.296;2023-05-07T02:30:41;7.87;;;7.47;;
6023;SDS011;3040;42.654;23.296;2023-05-07T02:33:09;9.27;;;8.60;;
6023;SDS011;3040;42.654;23.296;2023-05-07T02:35:37;8.57;;;7.57;;
6023;SDS011;3040;42.654;23.296;2023-05-07T02:38:04;9.23;;;8.50;;
6023;SDS011;3040;42.654;23.296;2023-05-07T02:40:31;7.77;;;7.27;;
6023;SDS011;3040;42.654;23.296;2023-05-07T02:42:58;8.07;;;7.60;;
6023;SDS011;3040;42.654;23.296;2023-05-07T02:45:25;8.17;;;7.73;;
6023;SDS011;3040;42.654;23.296;2023-05-07T02:47:52;8.13;;;7.73;;
6023;SDS011;3040;42.654;23.296;2023-05-07T02:50:20;8.57;;;8.07;;
6023;SDS011;3040;42.654;23.296;2023-05-07T02:52:47;8.70;;;8.10;;
6023;SDS011;3040;42.654;23.296;2023-05-07T02:55:14;8.73;;;8.13;;
6023;SDS011;3040;42.654;23.296;2023-05-07T02:57:41;8.47;;;8.07;;
6023;SDS011;3040;42.654;23.296;2023-05-07T03:00:11;8.63;;;8.07;;
6023;SDS011;3040;42.654;23.296;2023-05-07T03:02:39;9.47;;;8.60;;
6023;SDS011;3040;42.654;23.296;2023-05-07T03:05:06;9.47;;;8.53;;
6023;SDS011;3040;42.654;23.296;2023-05-07T03:07:34;9.80;;;9.00;;
6023;SDS011;3040;42.654;23.296;2023-05-07T03:10:01;10.10;;;8.23;;
6023;SDS011;3040;42.654;23.296;2023-05-07T03:12:28;9.63;;;7.63;;
6023;SDS011;3040;42.654;23.296;2023-05-07T03:14:56;9.37;;;8.63;;
6023;SDS011;3040;42.654;23.296;2023-05-07T03:17:23;9.17;;;8.47;;
6023;SDS011;3040;42.654;23.296;2023-05-07T03:19:49;9.60;;;8.00;;
6023;SDS011;3040;42.654;23.296;2023-05-07T03:22:16;9.17;;;8.40;;
6023;SDS011;3040;42.654;23.296;2023-05-07T03:24:44;10.07;;;9.10;;
6023;SDS011;3040;42.654;23.296;2023-05-07T03:27:11;9.17;;;8.47;;
6023;SDS011;3040;42.654;23.296;2023-05-07T03:29:38;8.67;;;8.17;;
6023;SDS011;3040;42.654;23.296;2023-05-07T03:32:05;13.40;;;8.13;;
6023;SDS011;3040;42.654;23.296;2023-05-07T03:34:31;8.13;;;7.53;;
6023;SDS011;3040;42.654;23.296;2023-05-07T03:36:58;8.20;;;7.60;;
6023;SDS011;3040;42.654;23.296;2023-05-07T03:39:25;8.60;;;7.73;;
6023;SDS011;3040;42.654;23.296;2023-05-07T03:41:53;11.80;;;7.80;;
6023;SDS011;3040;42.654;23.296;2023-05-07T03:44:20;9.17;;;8.47;;
6023;SDS011;3040;42.654;23.296;2023-05-07T03:46:47;8.17;;;7.37;;
6023;SDS011;3040;42.654;23.296;2023-05-07T03:49:14;8.27;;;7.67;;
6023;SDS011;3040;42.654;23.296;2023-05-07T03:51:40;8.00;;;7.50;;
6023;SDS011;3040;42.654;23.296;2023-05-07T03:54:07;10.00;;;7.40;;
6023;SDS011;3040;42.654;23.296;2023-05-07T03:56:34;7.30;;;6.80;;
6023;SDS011;3040;42.654;23.296;2023-05-07T03:59:02;7.73;;;7.20;;
6023;SDS011;3040;42.654;23.296;2023-05-07T04:01:29;8.90;;;7.83;;
6023;SDS011;3040;42.654;23.296;2023-05-07T04:03:56;7.63;;;7.03;;
6023;SDS011;3040;42.654;23.296;2023-05-07T04:06:23;9.10;;;6.90;;
6023;SDS011;3040;42.654;23.296;2023-05-07T04:08:50;9.47;;;7.17;;
6023;SDS011;3040;42.654;23.296;2023-05-07T04:11:18;9.80;;;7.60;;
6023;SDS011;3040;42.654;23.296;2023-05-07T04:13:45;8.17;;;7.40;;
6023;SDS011;3040;42.654;23.296;2023-05-07T04:16:13;12.43;;;8.93;;
6023;SDS011;3040;42.654;23.296;2023-05-07T04:18:41;8.67;;;7.87;;
6023;SDS011;3040;42.654;23.296;2023-05-07T04:21:13;8.53;;;7.80;;
6023;SDS011;3040;42.654;23.296;2023-05-07T04:23:40;12.47;;;8.17;;
6023;SDS011;3040;42.654;23.296;2023-05-07T04:26:07;7.80;;;7.30;;
6023;SDS011;3040;42.654;23.296;2023-05-07T04:28:34;8.20;;;7.70;;
6023;SDS011;3040;42.654;23.296;2023-05-07T04:31:01;8.87;;;8.27;;
6023;SDS011;3040;42.654;23.296;2023-05-07T04:33:29;8.70;;;8.07;;
6023;SDS011;3040;42.654;23.296;2023-05-07T04:35:56;8.40;;;7.70;;
6023;SDS011;3040;42.654;23.296;2023-05-07T04:38:23;8.73;;;8.03;;
6023;SDS011;3040;42.654;23.296;2023-05-07T04:40:50;8.83;;;8.07;;
6023;SDS011;3040;42.654;23.296;2023-05-07T04:43:17;7.77;;;7.37;;
6023;SDS011;3040;42.654;23.296;2023-05-07T04:45:44;8.67;;;8.07;;
6023;SDS011;3040;42.654;23.296;2023-05-07T04:48:10;8.30;;;7.50;;
6023;SDS011;3040;42.654;23.296;2023-05-07T04:50:41;8.47;;;8.07;;
6023;SDS011;3040;42.654;23.296;2023-05-07T04:53:07;10.77;;;8.73;;
6023;SDS011;3040;42.654;23.296;2023-05-07T04:55:34;9.53;;;8.80;;
6023;SDS011;3040;42.654;23.296;2023-05-07T04:58:01;8.73;;;8.23;;
6023;SDS011;3040;42.654;23.296;2023-05-07T05:00:28;9.73;;;9.03;;
6023;SDS011;3040;42.654;23.296;2023-05-07T05:02:54;9.60;;;8.97;;
6023;SDS011;3040;42.654;23.296;2023-05-07T05:05:21;9.33;;;8.83;;
6023;SDS011;3040;42.654;23.296;2023-05-07T05:07:49;9.50;;;8.80;;
6023;SDS011;3040;42.654;23.296;2023-05-07T05:10:16;10.50;;;9.23;;
6023;SDS011;3040;42.654;23.296;2023-05-07T05:12:43;9.20;;;8.57;;
6023;SDS011;3040;42.654;23.296;2023-05-07T05:15:10;10.00;;;9.10;;
6023;SDS011;3040;42.654;23.296;2023-05-07T05:17:38;9.00;;;8.60;;
6023;SDS011;3040;42.654;23.296;2023-05-07T05:20:05;9.47;;;8.90;;
6023;SDS011;3040;42.654;23.296;2023-05-07T05:22:32;8.77;;;8.37;;
6023;SDS011;3040;42.654;23.296;2023-05-07T05:25:00;9.77;;;8.97;;
6023;SDS011;3040;42.654;23.296;2023-05-07T05:27:27;8.20;;;7.50;;
6023;SDS011;3040;42.654;23.296;2023-05-07T05:29:55;9.37;;;8.50;;
6023;SDS011;3040;42.654;23.296;2023-05-07T05:32:22;9.13;;;8.33;;
6023;SDS011;3040;42.654;23.296;2023-05-07T05:34:48;8.70;;;8.17;;
6023;SDS011;3040;42.654;23.296;2023-05-07T05:37:16;9.07;;;8.53;;
6023;SDS011;3040;42.654;23.296;2023-05-07T05:39:42;10.63;;;9.70;;
6023;SDS011;3040;42.654;23.296;2023-05-07T05:42:11;9.93;;;9.13;;
6023;SDS011;3040;42.654;23.296;2023-05-07T05:44:38;9.27;;;8.70;;
6023;SDS011;3040;42.654;23.296;2023-05-07T05:47:04;9.47;;;8.70;;
6023;SDS011;3040;42.654;23.296;2023-05-07T05:49:31;11.07;;;8.77;;
6023;SDS011;3040;42.654;23.296;2023-05-07T05:51:58;8.57;;;8.13;;
6023;SDS011;3040;42.654;23.296;2023-05-07T05:54:25;8.80;;;8.30;;
6023;SDS011;3040;42.654;23.296;2023-05-07T05:56:52;9.10;;;8.60;;
6023;SDS011;3040;42.654;23.296;2023-05-07T05:59:20;10.20;;;9.00;;
6023;SDS011;3040;42.654;23.296;2023-05-07T06:01:47;9.93;;;9.13;;
6023;SDS011;3040;42.654;23.296;2023-05-07T06:04:14;8.97;;;8.37;;
6023;SDS011;3040;42.654;23.296;2023-05-07T06:06:41;10.17;;;9.47;;
6023;SDS011;3040;42.654;23.296;2023-05-07T06:09:07;8.67;;;8.17;;
6023;SDS011;3040;42.654;23.296;2023-05-07T06:11:34;9.43;;;8.57;;
6023;SDS011;3040;42.654;23.296;2023-05-07T06:14:01;9.57;;;8.40;;
6023;SDS011;3040;42.654;23.296;2023-05-07T06:16:29;11.60;;;8.47;;
6023;SDS011;3040;42.654;23.296;2023-05-07T06:18:56;8.17;;;7.57;;
6023;SDS011;3040;42.654;23.296;2023-05-07T06:21:23;8.43;;;7.83;;
6023;SDS011;3040;42.654;23.296;2023-05-07T06:23:50;8.00;;;7.70;;
6023;SDS011;3040;42.654;23.296;2023-05-07T06:26:17;8.87;;;8.23;;
6023;SDS011;3040;42.654;23.296;2023-05-07T06:28:44;8.57;;;8.10;;
6023;SDS011;3040;42.654;23.296;2023-05-07T06:31:11;7.93;;;7.23;;
6023;SDS011;3040;42.654;23.296;2023-05-07T06:33:40;8.07;;;7.50;;
6023;SDS011;3040;42.654;23.296;2023-05-07T06:36:07;8.73;;;7.60;;
6023;SDS011;3040;42.654;23.296;2023-05-07T06:38:35;7.67;;;7.17;;
6023;SDS011;3040;42.654;23.296;2023-05-07T06:41:01;7.63;;;7.00;;
6023;SDS011;3040;42.654;23.296;2023-05-07T06:43:28;5.83;;;5.47;;
6023;SDS011;3040;42.654;23.296;2023-05-07T06:45:55;6.37;;;5.83;;
6023;SDS011;3040;42.654;23.296;2023-05-07T06:48:22;6.97;;;6.57;;
6023;SDS011;3040;42.654;23.296;2023-05-07T06:50:50;6.73;;;6.10;;
6023;SDS011;3040;42.654;23.296;2023-05-07T06:53:17;7.03;;;6.30;;
6023;SDS011;3040;42.654;23.296;2023-05-07T06:55:44;5.70;;;5.40;;
6023;SDS011;3040;42.654;23.296;2023-05-07T06:58:10;6.20;;;5.70;;
6023;SDS011;3040;42.654;23.296;2023-05-07T07:00:37;6.17;;;5.87;;
6023;SDS011;3040;42.654;23.296;2023-05-07T07:03:04;6.90;;;6.50;;
6023;SDS011;3040;42.654;23.296;2023-05-07T07:05:31;7.97;;;7.30;;
6023;SDS011;3040;42.654;23.296;2023-05-07T07:07:59;7.33;;;6.73;;
6023;SDS011;3040;42.654;23.296;2023-05-07T07:10:26;7.17;;;6.70;;
6023;SDS011;3040;42.654;23.296;2023-05-07T07:12:53;6.47;;;5.97;;
6023;SDS011;3040;42.654;23.296;2023-05-07T07:15:19;5.87;;;5.47;;
6023;SDS011;3040;42.654;23.296;2023-05-07T07:17:47;6.40;;;5.90;;
6023;SDS011;3040;42.654;23.296;2023-05-07T07:20:14;6.60;;;6.10;;
6023;SDS011;3040;42.654;23.296;2023-05-07T07:22:41;6.20;;;5.67;;
6023;SDS011;3040;42.654;23.296;2023-05-07T07:25:09;5.70;;;5.40;;
6023;SDS011;3040;42.654;23.296;2023-05-07T07:27:37;6.10;;;5.70;;
6023;SDS011;3040;42.654;23.296;2023-05-07T07:30:05;6.13;;;5.73;;
6023;SDS011;3040;42.654;23.296;2023-05-07T07:32:34;6.37;;;5.70;;
6023;SDS011;3040;42.654;23.296;2023-05-07T07:35:01;6.03;;;5.00;;
6023;SDS011;3040;42.654;23.296;2023-05-07T07:37:27;5.13;;;4.93;;
6023;SDS011;3040;42.654;23.296;2023-05-07T07:39:55;6.00;;;5.73;;
6023;SDS011;3040;42.654;23.296;2023-05-07T07:42:23;5.33;;;5.07;;
6023;SDS011;3040;42.654;23.296;2023-05-07T07:44:50;5.27;;;4.80;;
6023;SDS011;3040;42.654;23.296;2023-05-07T07:47:16;7.33;;;6.77;;
6023;SDS011;3040;42.654;23.296;2023-05-07T07:49:43;6.87;;;6.17;;
6023;SDS011;3040;42.654;23.296;2023-05-07T07:52:11;6.97;;;6.30;;
6023;SDS011;3040;42.654;23.296;2023-05-07T07:54:38;7.37;;;6.83;;
6023;SDS011;3040;42.654;23.296;2023-05-07T07:57:04;6.67;;;6.17;;
6023;SDS011;3040;42.654;23.296;2023-05-07T07:59:33;7.43;;;7.00;;
6023;SDS011;3040;42.654;23.296;2023-05-07T08:01:59;7.60;;;7.00;;
6023;SDS011;3040;42.654;23.296;2023-05-07T08:04:26;7.00;;;6.33;;
6023;SDS011;3040;42.654;23.296;2023-05-07T08:06:53;7.87;;;7.20;;
6023;SDS011;3040;42.654;23.296;2023-05-07T08:09:21;7.10;;;6.60;;
6023;SDS011;3040;42.654;23.296;2023-05-07T08:11:47;7.47;;;6.97;;
6023;SDS011;3040;42.654;23.296;2023-05-07T08:14:15;7.33;;;6.93;;
6023;SDS011;3040;42.654;23.296;2023-05-07T08:16:43;7.20;;;6.50;;
6023;SDS011;3040;42.654;23.296;2023-05-07T08:19:10;7.17;;;6.67;;
6023;SDS011;3040;42.654;23.296;2023-05-07T08:21:38;6.73;;;6.33;;
6023;SDS011;3040;42.654;23.296;2023-05-07T08:24:05;6.90;;;6.40;;
6023;SDS011;3040;42.654;23.296;2023-05-07T08:26:32;7.07;;;6.57;;
6023;SDS011;3040;42.654;23.296;2023-05-07T08:29:01;7.97;;;7.17;;
6023;SDS011;3040;42.654;23.296;2023-05-07T08:31:27;6.83;;;6.03;;
6023;SDS011;3040;42.654;23.296;2023-05-07T08:33:56;6.87;;;6.57;;
6023;SDS011;3040;42.654;23.296;2023-05-07T08:36:23;6.13;;;5.70;;
6023;SDS011;3040;42.654;23.296;2023-05-07T08:38:50;9.70;;;6.10;;
6023;SDS011;3040;42.654;23.296;2023-05-07T08:41:17;5.77;;;5.27;;
6023;SDS011;3040;42.654;23.296;2023-05-07T08:43:46;4.37;;;4.20;;
6023;SDS011;3040;42.654;23.296;2023-05-07T08:46:16;4.90;;;4.60;;
6023;SDS011;3040;42.654;23.296;2023-05-07T08:48:45;5.50;;;5.10;;
6023;SDS011;3040;42.654;23.296;2023-05-07T08:51:16;5.80;;;5.40;;
6023;SDS011;3040;42.654;23.296;2023-05-07T08:53:44;4.10;;;3.80;;
6023;SDS011;3040;42.654;23.296;2023-05-07T08:56:13;3.13;;;2.97;;
6023;SDS011;3040;42.654;23.296;2023-05-07T08:58:42;3.43;;;3.27;;
6023;SDS011;3040;42.654;23.296;2023-05-07T09:01:09;5.27;;;5.03;;
6023;SDS011;3040;42.654;23.296;2023-05-07T09:03:39;6.03;;;5.57;;
6023;SDS011;3040;42.654;23.296;2023-05-07T09:06:06;5.60;;;5.30;;
6023;SDS011;3040;42.654;23.296;2023-05-07T09:08:34;5.10;;;4.70;;
6023;SDS011;3040;42.654;23.296;2023-05-07T09:11:02;4.97;;;4.77;;
6023;SDS011;3040;42.654;23.296;2023-05-07T09:13:29;5.03;;;4.63;;
6023;SDS011;3040;42.654;23.296;2023-05-07T09:15:56;4.93;;;4.63;;
6023;SDS011;3040;42.654;23.296;2023-05-07T09:18:23;4.50;;;4.20;;
6023;SDS011;3040;42.654;23.296;2023-05-07T09:20:51;5.17;;;4.87;;
6023;SDS011;3040;42.654;23.296;2023-05-07T09:23:17;4.93;;;4.73;;
6023;SDS011;3040;42.654;23.296;2023-05-07T09:25:46;5.70;;;5.30;;
6023;SDS011;3040;42.654;23.296;2023-05-07T09:28:12;5.47;;;5.17;;
6023;SDS011;3040;42.654;23.296;2023-05-07T09:30:39;7.10;;;5.60;;
6023;SDS011;3040;42.654;23.296;2023-05-07T09:33:06;4.90;;;4.70;;
6023;SDS011;3040;42.654;23.296;2023-05-07T09:35:33;6.03;;;5.43;;
6023;SDS011;3040;42.654;23.296;2023-05-07T09:38:00;4.97;;;4.73;;
6023;SDS011;3040;42.654;23.296;2023-05-07T09:40:28;5.50;;;5.00;;
6023;SDS011;3040;42.654;23.296;2023-05-07T09:43:07;5.00;;;4.67;;
6023;SDS011;3040;42.654;23.296;2023-05-07T09:45:35;4.00;;;3.70;;
6023;SDS011;3040;42.654;23.296;2023-05-07T09:48:04;4.90;;;4.53;;
6023;SDS011;3040;42.654;23.296;2023-05-07T09:50:32;4.33;;;4.00;;
6023;SDS011;3040;42.654;23.296;2023-05-07T09:53:03;5.30;;;4.83;;
6023;SDS011;3040;42.654;23.296;2023-05-07T09:55:30;4.17;;;3.97;;
6023;SDS011;3040;42.654;23.296;2023-05-07T09:57:58;4.93;;;4.53;;
6023;SDS011;3040;42.654;23.296;2023-05-07T10:00:27;5.03;;;4.37;;
6023;SDS011;3040;42.654;23.296;2023-05-07T10:02:56;4.40;;;4.00;;
6023;SDS011;3040;42.654;23.296;2023-05-07T10:05:23;4.10;;;3.80;;
6023;SDS011;3040;42.654;23.296;2023-05-07T10:07:51;8.07;;;4.73;;
6023;SDS011;3040;42.654;23.296;2023-05-07T10:10:19;4.40;;;4.20;;
6023;SDS011;3040;42.654;23.296;2023-05-07T10:12:46;4.63;;;3.87;;
6023;SDS011;3040;42.654;23.296;2023-05-07T10:15:15;3.50;;;3.37;;
6023;SDS011;3040;42.654;23.296;2023-05-07T10:17:42;6.73;;;4.73;;
6023;SDS011;3040;42.654;23.296;2023-05-07T10:20:09;3.10;;;2.80;;
6023;SDS011;3040;42.654;23.296;2023-05-07T10:22:37;3.33;;;3.13;;
6023;SDS011;3040;42.654;23.296;2023-05-07T10:25:05;5.73;;;3.00;;
6023;SDS011;3040;42.654;23.296;2023-05-07T10:27:36;3.57;;;3.27;;
6023;SDS011;3040;42.654;23.296;2023-05-07T10:30:06;3.83;;;3.53;;
6023;SDS011;3040;42.654;23.296;2023-05-07T10:32:40;3.40;;;3.20;;
6023;SDS011;3040;42.654;23.296;2023-05-07T10:35:14;3.73;;;3.47;;
6023;SDS011;3040;42.654;23.296;2023-05-07T10:37:43;5.00;;;4.00;;
6023;SDS011;3040;42.654;23.296;2023-05-07T10:40:12;3.37;;;3.23;;
6023;SDS011;3040;42.654;23.296;2023-05-07T10:42:52;4.47;;;4.17;;
6023;SDS011;3040;42.654;23.296;2023-05-07T10:45:21;5.03;;;4.57;;
6023;SDS011;3040;42.654;23.296;2023-05-07T10:48:09;4.27;;;4.07;;
6023;SDS011;3040;42.654;23.296;2023-05-07T10:50:37;4.27;;;4.07;;
6023;SDS011;3040;42.654;23.296;2023-05-07T10:53:20;4.10;;;3.83;;
6023;SDS011;3040;42.654;23.296;2023-05-07T11:27:41;3.77;;;3.47;;
6023;SDS011;3040;42.654;23.296;2023-05-07T11:30:09;4.37;;;3.97;;
6023;SDS011;3040;42.654;23.296;2023-05-07T11:32:36;3.80;;;3.50;;
6023;SDS011;3040;42.654;23.296;2023-05-07T11:35:04;3.60;;;3.50;;
6023;SDS011;3040;42.654;23.296;2023-05-07T11:37:32;4.63;;;3.83;;
6023;SDS011;3040;42.654;23.296;2023-05-07T11:40:02;4.40;;;3.80;;
6023;SDS011;3040;42.654;23.296;2023-05-07T11:42:31;3.80;;;3.50;;
6023;SDS011;3040;42.654;23.296;2023-05-07T11:45:01;3.97;;;3.70;;
6023;SDS011;3040;42.654;23.296;2023-05-07T11:47:29;4.23;;;4.03;;
6023;SDS011;3040;42.654;23.296;2023-05-07T11:49:57;3.70;;;3.43;;
6023;SDS011;3040;42.654;23.296;2023-05-07T11:52:29;3.47;;;3.30;;
6023;SDS011;3040;42.654;23.296;2023-05-07T11:54:56;4.23;;;3.87;;
6023;SDS011;3040;42.654;23.296;2023-05-07T11:57:25;3.60;;;3.30;;
6023;SDS011;3040;42.654;23.296;2023-05-07T11:59:53;3.67;;;3.23;;
6023;SDS011;3040;42.654;23.296;2023-05-07T12:02:22;2.80;;;2.70;;
6023;SDS011;3040;42.654;23.296;2023-05-07T12:04:49;2.87;;;2.77;;
6023;SDS011;3040;42.654;23.296;2023-05-07T12:07:16;3.40;;;3.20;;
6023;SDS011;3040;42.654;23.296;2023-05-07T12:09:44;3.43;;;3.33;;
6023;SDS011;3040;42.654;23.296;2023-05-07T12:12:12;3.70;;;3.50;;
6023;SDS011;3040;42.654;23.296;2023-05-07T12:14:40;3.17;;;2.83;;
6023;SDS011;3040;42.654;23.296;2023-05-07T12:17:08;3.50;;;3.13;;
6023;SDS011;3040;42.654;23.296;2023-05-07T12:19:38;3.30;;;3.10;;
6023;SDS011;3040;42.654;23.296;2023-05-07T12:22:06;3.27;;;2.97;;
6023;SDS011;3040;42.654;23.296;2023-05-07T12:24:42;3.20;;;2.93;;
6023;SDS011;3040;42.654;23.296;2023-05-07T12:27:10;2.50;;;2.40;;
6023;SDS011;3040;42.654;23.296;2023-05-07T12:29:36;2.73;;;2.50;;
6023;SDS011;3040;42.654;23.296;2023-05-07T12:32:05;3.03;;;2.80;;
6023;SDS011;3040;42.654;23.296;2023-05-07T12:34:32;3.30;;;2.97;;
6023;SDS011;3040;42.654;23.296;2023-05-07T12:37:02;2.70;;;2.50;;
6023;SDS011;3040;42.654;23.296;2023-05-07T12:39:30;2.73;;;2.40;;
6023;SDS011;3040;42.654;23.296;2023-05-07T12:41:58;2.67;;;2.47;;
6023;SDS011;3040;42.654;23.296;2023-05-07T12:44:25;2.90;;;2.77;;
6023;SDS011;3040;42.654;23.296;2023-05-07T12:46:56;2.20;;;2.10;;
6023;SDS011;3040;42.654;23.296;2023-05-07T12:49:23;2.63;;;2.43;;
6023;SDS011;3040;42.654;23.296;2023-05-07T12:51:51;2.43;;;2.23;;
6023;SDS011;3040;42.654;23.296;2023-05-07T12:54:28;2.30;;;2.20;;
6023;SDS011;3040;42.654;23.296;2023-05-07T12:57:02;2.87;;;2.67;;
6023;SDS011;3040;42.654;23.296;2023-05-07T12:59:31;2.60;;;2.43;;
6023;SDS011;3040;42.654;23.296;2023-05-07T13:01:59;4.03;;;2.43;;
6023;SDS011;3040;42.654;23.296;2023-05-07T13:04:25;3.53;;;2.40;;
6023;SDS011;3040;42.654;23.296;2023-05-07T13:06:52;2.40;;;2.33;;
6023;SDS011;3040;42.654;23.296;2023-05-07T13:09:19;3.27;;;2.30;;
6023;SDS011;3040;42.654;23.296;2023-05-07T13:11:47;3.30;;;3.07;;
6023;SDS011;3040;42.654;23.296;2023-05-07T13:14:14;2.90;;;2.80;;
6023;SDS011;3040;42.654;23.296;2023-05-07T13:16:41;2.60;;;2.40;;
6023;SDS011;3040;42.654;23.296;2023-05-07T13:19:09;2.80;;;2.70;;
6023;SDS011;3040;42.654;23.296;2023-05-07T13:21:36;2.70;;;2.50;;
6023;SDS011;3040;42.654;23.296;2023-05-07T13:24:03;2.70;;;2.60;;
6023;SDS011;3040;42.654;23.296;2023-05-07T13:26:30;2.93;;;2.83;;
6023;SDS011;3040;42.654;23.296;2023-05-07T13:28:59;2.27;;;2.17;;
6023;SDS011;3040;42.654;23.296;2023-05-07T13:31:26;2.77;;;2.43;;
6023;SDS011;3040;42.654;23.296;2023-05-07T13:33:52;2.47;;;2.37;;
6023;SDS011;3040;42.654;23.296;2023-05-07T13:36:22;2.40;;;2.33;;
6023;SDS011;3040;42.654;23.296;2023-05-07T13:38:49;2.70;;;2.50;;
6023;SDS011;3040;42.654;23.296;2023-05-07T13:41:17;2.73;;;2.63;;
6023;SDS011;3040;42.654;23.296;2023-05-07T13:43:45;3.70;;;2.17;;
6023;SDS011;3040;42.654;23.296;2023-05-07T13:46:13;2.60;;;2.50;;
6023;SDS011;3040;42.654;23.296;2023-05-07T13:48:40;3.03;;;2.70;;
6023;SDS011;3040;42.654;23.296;2023-05-07T13:51:06;2.90;;;2.60;;
6023;SDS011;3040;42.654;23.296;2023-05-07T13:53:33;2.87;;;2.77;;
6023;SDS011;3040;42.654;23.296;2023-05-07T13:56:00;4.40;;;2.40;;
6023;SDS011;3040;42.654;23.296;2023-05-07T13:58:29;2.07;;;1.97;;
6023;SDS011;3040;42.654;23.296;2023-05-07T14:00:56;2.20;;;2.10;;
6023;SDS011;3040;42.654;23.296;2023-05-07T14:03:24;3.80;;;2.40;;
6023;SDS011;3040;42.654;23.296;2023-05-07T14:05:51;3.43;;;1.90;;
6023;SDS011;3040;42.654;23.296;2023-05-07T14:08:18;2.17;;;2.17;;
6023;SDS011;3040;42.654;23.296;2023-05-07T14:10:45;2.30;;;2.20;;
6023;SDS011;3040;42.654;23.296;2023-05-07T14:13:12;3.03;;;2.57;;
6023;SDS011;3040;42.654;23.296;2023-05-07T14:15:39;2.63;;;2.53;;
6023;SDS011;3040;42.654;23.296;2023-05-07T14:18:08;2.70;;;2.50;;
6023;SDS011;3040;42.654;23.296;2023-05-07T14:20:36;2.97;;;2.70;;
6023;SDS011;3040;42.654;23.296;2023-05-07T14:23:03;2.77;;;2.60;;
6023;SDS011;3040;42.654;23.296;2023-05-07T14:25:30;2.73;;;2.57;;
6023;SDS011;3040;42.654;23.296;2023-05-07T14:27:57;2.97;;;2.87;;
6023;SDS011;3040;42.654;23.296;2023-05-07T14:30:24;2.40;;;2.27;;
6023;SDS011;3040;42.654;23.296;2023-05-07T14:32:50;2.53;;;2.43;;
6023;SDS011;3040;42.654;23.296;2023-05-07T14:35:17;3.00;;;2.80;;
6023;SDS011;3040;42.654;23.296;2023-05-07T14:37:46;2.23;;;2.10;;
6023;SDS011;3040;42.654;23.296;2023-05-07T14:40:12;2.47;;;2.27;;
6023;SDS011;3040;42.654;23.296;2023-05-07T14:42:39;3.13;;;2.40;;
6023;SDS011;3040;42.654;23.296;2023-05-07T14:45:07;2.60;;;2.50;;
6023;SDS011;3040;42.654;23.296;2023-05-07T14:47:34;2.67;;;2.43;;
6023;SDS011;3040;42.654;23.296;2023-05-07T14:50:01;2.90;;;2.70;;
6023;SDS011;3040;42.654;23.296;2023-05-07T14:52:28;5.37;;;2.37;;
6023;SDS011;3040;42.654;23.296;2023-05-07T14:54:56;2.07;;;2.00;;
6023;SDS011;3040;42.654;23.296;2023-05-07T14:57:23;2.73;;;2.53;;
6023;SDS011;3040;42.654;23.296;2023-05-07T14:59:50;2.10;;;2.00;;
6023;SDS011;3040;42.654;23.296;2023-05-07T15:02:17;2.63;;;2.47;;
6023;SDS011;3040;42.654;23.296;2023-05-07T15:04:44;2.60;;;2.40;;
6023;SDS011;3040;42.654;23.296;2023-05-07T15:07:11;3.73;;;2.53;;
6023;SDS011;3040;42.654;23.296;2023-05-07T15:09:40;2.30;;;2.20;;
6023;SDS011;3040;42.654;23.296;2023-05-07T15:12:08;4.40;;;2.80;;
6023;SDS011;3040;42.654;23.296;2023-05-07T15:14:36;3.83;;;2.37;;
6023;SDS011;3040;42.654;23.296;2023-05-07T15:17:03;2.60;;;2.50;;
6023;SDS011;3040;42.654;23.296;2023-05-07T15:19:29;2.47;;;2.37;;
6023;SDS011;3040;42.654;23.296;2023-05-07T15:21:56;2.37;;;2.27;;
6023;SDS011;3040;42.654;23.296;2023-05-07T15:24:23;2.40;;;2.30;;
6023;SDS011;3040;42.654;23.296;2023-05-07T15:26:51;4.40;;;2.70;;
6023;SDS011;3040;42.654;23.296;2023-05-07T15:29:19;2.50;;;2.30;;
6023;SDS011;3040;42.654;23.296;2023-05-07T15:31:46;2.57;;;2.33;;
6023;SDS011;3040;42.654;23.296;2023-05-07T15:34:13;2.43;;;2.23;;